Time;durP1;ratioP1;P1;durP2;ratioP2;P2;SDS_P1;SDS_P2;PMS_P1;PMS_P2;Temp;Humidity;BMP_temperature;BMP_pressure;BME280_temperature;BME280_humidity;BME280_pressure;Samples;Min_cycle;Max_cycle;Signal;HPM_P1;HPM_P2
2021/08/03 00:00:54;;;;;;;16.80;10.57;;;;;;;;;;5003993;28;20037;-76
2021/08/03 00:03:27;;;;;;;;;;;;;;;;;;4991480;28;20530;-77
2021/08/03 00:05:56;;;;;;;13.70;9.95;;;;;;;;;;5021758;28;19925;-75
2021/08/03 00:08:28;;;;;;;13.27;9.50;;;;;;;;;;5000954;28;20045;-75
2021/08/03 00:10:57;;;;;;;15.25;9.00;;;;;;;;;;4994558;28;20088;-75
2021/08/03 00:13:28;;;;;;;12.70;9.57;;;;;;;;;;5021851;28;20042;-75
2021/08/03 00:16:01;;;;;;;14.85;9.15;;;;;;;;;;5021610;28;20103;-76
2021/08/03 00:18:31;;;;;;;16.85;9.68;;;;;;;;;;5002961;28;20044;-75
2021/08/03 00:20:59;;;;;;;15.23;8.75;;;;;;;;;;5015928;28;20567;-74
2021/08/03 00:23:27;;;;;;;14.50;8.98;;;;;;;;;;5021296;28;20127;-75
2021/08/03 00:25:55;;;;;;;13.93;8.93;;;;;;;;;;4983693;28;20069;-75
2021/08/03 00:28:22;;;;;;;12.48;8.10;;;;;;;;;;5003966;28;20040;-76
2021/08/03 00:30:51;;;;;;;14.63;8.18;;;;;;;;;;5020876;28;20049;-75
2021/08/03 00:33:19;;;;;;;13.65;9.27;;;;;;;;;;4999629;28;20041;-75
2021/08/03 00:35:52;;;;;;;20.35;10.05;;;;;;;;;;5012648;28;20041;-76
2021/08/03 00:38:19;;;;;;;18.52;9.93;;;;;;;;;;4990419;28;20566;-75
2021/08/03 00:41:15;;;;;;;17.33;10.13;;;;;;;;;;5016936;28;20045;-75
2021/08/03 00:43:42;;;;;;;16.92;9.93;;;;;;;;;;5002531;28;20052;-75
2021/08/03 00:46:10;;;;;;;17.15;11.00;;;;;;;;;;5021626;28;20121;-76
2021/08/03 00:48:37;;;;;;;18.13;12.10;;;;;;;;;;5010474;28;20046;-76
2021/08/03 00:51:04;;;;;;;17.50;12.60;;;;;;;;;;5020498;28;20038;-75
2021/08/03 00:53:31;;;;;;;19.60;11.73;;;;;;;;;;4987111;28;20038;-76
2021/08/03 00:56:00;;;;;;;19.27;12.65;;;;;;;;;;4983413;28;20046;-77
2021/08/03 00:58:27;;;;;;;22.25;12.40;;;;;;;;;;5001571;28;20053;-76
2021/08/03 01:00:56;;;;;;;18.05;12.13;;;;;;;;;;4982746;28;20404;-77
2021/08/03 01:03:24;;;;;;;19.10;12.35;;;;;;;;;;4999907;28;20095;-77
2021/08/03 01:06:19;;;;;;;20.30;12.73;;;;;;;;;;4984264;28;20038;-75
2021/08/03 01:09:29;;;;;;;21.10;12.40;;;;;;;;;;4968216;28;20042;-76
2021/08/03 01:12:05;;;;;;;19.38;11.85;;;;;;;;;;4954227;28;20136;-76
2021/08/03 01:14:49;;;;;;;18.23;11.85;;;;;;;;;;5000242;28;20045;-75
2021/08/03 01:17:39;;;;;;;16.55;10.98;;;;;;;;;;4991679;28;20453;-75
2021/08/03 01:20:16;;;;;;;18.33;11.13;;;;;;;;;;4992406;28;20412;-77
2021/08/03 01:23:16;;;;;;;16.70;10.23;;;;;;;;;;5003167;28;20042;-76
2021/08/03 01:26:23;;;;;;;19.42;11.15;;;;;;;;;;4985504;28;20052;-76
2021/08/03 01:28:53;;;;;;;17.27;11.77;;;;;;;;;;5003310;28;20104;-75
2021/08/03 01:31:28;;;;;;;19.27;11.13;;;;;;;;;;4986032;28;20048;-76
2021/08/03 01:34:09;;;;;;;18.90;10.98;;;;;;;;;;4985135;28;20512;-77
2021/08/03 01:36:40;;;;;;;19.77;10.90;;;;;;;;;;5002787;28;20408;-74
2021/08/03 01:39:07;;;;;;;15.65;10.25;;;;;;;;;;5002408;28;20064;-74
2021/08/03 01:41:39;;;;;;;15.15;9.55;;;;;;;;;;5002166;28;20061;-76
2021/08/03 01:44:11;;;;;;;17.67;10.98;;;;;;;;;;5001739;28;20084;-76
2021/08/03 01:46:42;;;;;;;16.08;10.82;;;;;;;;;;5002715;28;20041;-76
2021/08/03 01:49:12;;;;;;;16.73;9.55;;;;;;;;;;5002843;28;20042;-75
2021/08/03 01:51:42;;;;;;;17.52;9.77;;;;;;;;;;4984744;28;20073;-76
2021/08/03 01:54:10;;;;;;;14.90;9.63;;;;;;;;;;5002803;28;20092;-76
2021/08/03 01:56:39;;;;;;;16.77;10.77;;;;;;;;;;4985925;28;20128;-75
2021/08/03 01:59:07;;;;;;;19.27;10.77;;;;;;;;;;4969494;28;20592;-75
2021/08/03 02:01:36;;;;;;;17.40;9.63;;;;;;;;;;4985208;28;20050;-76
2021/08/03 02:04:05;;;;;;;18.88;10.13;;;;;;;;;;5002803;28;20551;-75
2021/08/03 02:06:32;;;;;;;16.80;10.10;;;;;;;;;;5002814;28;20037;-75
2021/08/03 02:09:01;;;;;;;21.98;10.63;;;;;;;;;;5002500;28;20037;-75
2021/08/03 02:11:34;;;;;;;18.33;11.75;;;;;;;;;;5002530;28;20515;-75
2021/08/03 02:14:05;;;;;;;16.25;10.55;;;;;;;;;;4985238;28;20041;-76
2021/08/03 02:16:33;;;;;;;17.33;10.80;;;;;;;;;;5002440;28;20558;-75
2021/08/03 02:19:02;;;;;;;19.20;11.55;;;;;;;;;;5002522;28;20492;-74
2021/08/03 02:21:29;;;;;;;19.98;10.48;;;;;;;;;;5002705;28;20042;-74
2021/08/03 02:23:57;;;;;;;16.23;10.68;;;;;;;;;;4985670;28;20084;-75
2021/08/03 02:26:24;;;;;;;14.40;10.32;;;;;;;;;;4984993;28;20030;-77
2021/08/03 02:28:51;;;;;;;15.13;9.63;;;;;;;;;;5001579;28;20062;-75
2021/08/03 02:31:30;;;;;;;16.02;9.98;;;;;;;;;;4985467;28;20041;-75
2021/08/03 02:34:26;;;;;;;17.17;9.93;;;;;;;;;;5001561;28;20558;-76
2021/08/03 02:36:58;;;;;;;18.27;10.73;;;;;;;;;;4980478;28;20554;-76
2021/08/03 02:39:27;;;;;;;18.23;10.88;;;;;;;;;;5002096;28;20042;-74
2021/08/03 02:41:58;;;;;;;16.80;10.73;;;;;;;;;;4991853;28;20096;-74
2021/08/03 02:44:28;;;;;;;15.68;10.05;;;;;;;;;;5001321;28;20132;-76
2021/08/03 02:46:56;;;;;;;17.70;9.63;;;;;;;;;;5001414;28;21202;-73
2021/08/03 02:49:46;;;;;;;15.70;8.95;;;;;;;;;;4991762;28;20042;-74
2021/08/03 02:52:15;;;;;;;17.25;9.32;;;;;;;;;;4984346;28;20041;-74
2021/08/03 02:54:45;;;;;;;14.82;8.68;;;;;;;;;;5000083;28;20034;-75
2021/08/03 02:57:15;;;;;;;14.05;8.85;;;;;;;;;;5001037;28;20056;-74
2021/08/03 02:59:50;;;;;;;14.90;9.93;;;;;;;;;;4984071;28;20108;-74
2021/08/03 03:02:19;;;;;;;15.75;10.90;;;;;;;;;;5001756;28;20066;-76
2021/08/03 03:05:04;;;;;;;15.02;10.63;;;;;;;;;;5000888;28;20065;-76
2021/08/03 03:07:40;;;;;;;16.17;9.63;;;;;;;;;;4977069;28;20065;-74
2021/08/03 03:10:17;;;;;;;15.15;9.85;;;;;;;;;;4984194;28;20038;-75
2021/08/03 03:12:54;;;;;;;15.30;10.20;;;;;;;;;;4997707;28;20041;-75
2021/08/03 03:15:22;;;;;;;17.30;10.25;;;;;;;;;;4999087;28;20046;-74
2021/08/03 03:17:50;;;;;;;;;;;;;;;;;;4983534;28;20050;-75
2021/08/03 03:20:18;;;;;;;21.88;13.95;;;;;;;;;;5000343;28;20403;-75
2021/08/03 03:22:48;;;;;;;23.02;15.40;;;;;;;;;;5001286;28;20384;-75
2021/08/03 03:25:24;;;;;;;21.92;15.20;;;;;;;;;;5000349;28;20061;-74
2021/08/03 03:27:59;;;;;;;24.23;15.07;;;;;;;;;;4982840;28;20049;-74
2021/08/03 03:30:30;;;;;;;20.10;13.23;;;;;;;;;;5000098;28;20177;-75
2021/08/03 03:33:07;;;;;;;20.75;12.23;;;;;;;;;;4982959;28;20120;-74
2021/08/03 03:35:37;;;;;;;19.33;12.27;;;;;;;;;;4983151;28;20128;-77
2021/08/03 03:38:04;;;;;;;;;;;;;;;;;;4999286;28;20129;-76
2021/08/03 03:40:34;;;;;;;19.17;11.60;;;;;;;;;;5001128;28;19988;-74
2021/08/03 03:43:02;;;;;;;17.23;11.38;;;;;;;;;;4989586;28;20452;-75
2021/08/03 03:45:31;;;;;;;17.95;11.70;;;;;;;;;;4987208;28;20038;-76
2021/08/03 03:48:02;;;;;;;19.10;11.10;;;;;;;;;;4986986;28;20049;-75
2021/08/03 03:50:46;;;;;;;16.35;9.75;;;;;;;;;;4986900;28;20042;-75
2021/08/03 03:53:23;;;;;;;14.95;9.60;;;;;;;;;;4987599;28;20050;-74
2021/08/03 03:56:02;;;;;;;18.00;10.20;;;;;;;;;;5004664;28;20038;-76
2021/08/03 03:58:33;;;;;;;17.77;10.57;;;;;;;;;;5005578;28;20046;-74
2021/08/03 04:01:00;;;;;;;18.08;10.82;;;;;;;;;;5003959;28;20116;-74
2021/08/03 04:03:29;;;;;;;17.55;10.10;;;;;;;;;;4987704;28;20496;-77
2021/08/03 04:05:57;;;;;;;18.40;11.35;;;;;;;;;;5005239;28;20481;-75
2021/08/03 04:08:24;;;;;;;16.10;11.43;;;;;;;;;;5004318;28;20100;-74
2021/08/03 04:10:51;;;;;;;17.00;10.82;;;;;;;;;;5005080;28;20552;-75
2021/08/03 04:13:18;;;;;;;15.13;10.45;;;;;;;;;;5004765;28;20071;-75
2021/08/03 04:15:48;;;;;;;15.85;9.70;;;;;;;;;;4987623;28;20048;-77
2021/08/03 04:18:15;;;;;;;14.95;9.77;;;;;;;;;;5004010;28;20054;-75
2021/08/03 04:20:42;;;;;;;17.15;10.38;;;;;;;;;;4988013;28;20117;-76
2021/08/03 04:23:09;;;;;;;16.52;10.15;;;;;;;;;;5004597;28;20128;-75
2021/08/03 04:25:36;;;;;;;14.77;9.75;;;;;;;;;;4987435;28;20053;-75
2021/08/03 04:28:04;;;;;;;14.50;10.07;;;;;;;;;;5004855;28;20042;-75
2021/08/03 04:30:31;;;;;;;15.70;9.35;;;;;;;;;;4987012;28;20096;-74
2021/08/03 04:32:58;;;;;;;12.50;8.70;;;;;;;;;;5004908;28;20477;-75
2021/08/03 04:35:25;;;;;;;14.75;9.82;;;;;;;;;;5009828;28;20038;-75
2021/08/03 04:37:52;;;;;;;17.23;9.73;;;;;;;;;;4999857;28;20053;-75
2021/08/03 04:40:22;;;;;;;13.88;8.95;;;;;;;;;;5000239;28;20145;-75
2021/08/03 04:42:50;;;;;;;14.25;8.85;;;;;;;;;;4983148;28;20062;-74
2021/08/03 04:45:17;;;;;;;16.10;9.48;;;;;;;;;;4983600;28;20052;-74
2021/08/03 04:47:47;;;;;;;15.63;9.85;;;;;;;;;;4986017;28;20046;-75
2021/08/03 04:50:41;;;;;;;14.40;9.45;;;;;;;;;;4983708;28;20062;-74
2021/08/03 04:53:08;;;;;;;14.02;9.73;;;;;;;;;;4984823;28;20053;-75
2021/08/03 04:55:35;;;;;;;14.60;10.25;;;;;;;;;;4999727;28;20148;-74
2021/08/03 04:58:02;;;;;;;14.80;9.32;;;;;;;;;;4983887;28;20057;-75
2021/08/03 05:00:29;;;;;;;13.07;8.48;;;;;;;;;;4987162;28;20057;-75
2021/08/03 05:02:57;;;;;;;15.52;8.80;;;;;;;;;;4989155;28;20046;-74
2021/08/03 05:05:24;;;;;;;14.25;9.43;;;;;;;;;;5000652;28;20485;-75
2021/08/03 05:07:59;;;;;;;14.18;9.38;;;;;;;;;;4999695;28;20050;-74
2021/08/03 05:10:28;;;;;;;11.82;8.88;;;;;;;;;;4967504;28;20408;-76
2021/08/03 05:12:56;;;;;;;13.98;8.30;;;;;;;;;;4984596;28;20240;-75
2021/08/03 05:15:24;;;;;;;14.93;9.48;;;;;;;;;;4967591;28;20042;-76
2021/08/03 05:17:51;;;;;;;14.80;9.65;;;;;;;;;;4985067;28;20685;-75
2021/08/03 05:20:18;;;;;;;15.07;9.40;;;;;;;;;;4983210;28;20065;-76
2021/08/03 05:22:46;;;;;;;21.38;11.30;;;;;;;;;;4995095;28;20043;-75
2021/08/03 05:25:14;;;;;;;14.65;9.45;;;;;;;;;;4982879;28;20516;-75
2021/08/03 05:27:41;;;;;;;14.73;10.20;;;;;;;;;;4985022;28;20038;-75
2021/08/03 05:30:09;;;;;;;14.23;10.57;;;;;;;;;;5004454;28;20057;-75
2021/08/03 05:32:36;;;;;;;15.80;9.98;;;;;;;;;;5003183;28;20100;-75
2021/08/03 05:35:05;;;;;;;15.18;9.38;;;;;;;;;;5003118;28;20492;-75
2021/08/03 05:37:33;;;;;;;13.38;9.18;;;;;;;;;;5003322;28;20147;-75
2021/08/03 05:40:05;;;;;;;14.25;8.57;;;;;;;;;;5009311;28;20045;-75
2021/08/03 05:42:32;;;;;;;15.00;10.40;;;;;;;;;;5017795;28;20482;-75
2021/08/03 05:44:59;;;;;;;16.73;10.27;;;;;;;;;;5010298;28;20095;-77
2021/08/03 05:47:26;;;;;;;15.02;9.32;;;;;;;;;;5002561;28;20048;-75
2021/08/03 05:49:53;;;;;;;13.60;9.40;;;;;;;;;;5001767;28;20121;-75
2021/08/03 05:52:20;;;;;;;16.98;9.77;;;;;;;;;;4986378;28;20050;-75
2021/08/03 05:54:47;;;;;;;13.75;8.52;;;;;;;;;;4993047;28;20442;-75
2021/08/03 05:57:14;;;;;;;14.55;8.35;;;;;;;;;;5003660;28;20053;-75
2021/08/03 05:59:41;;;;;;;14.75;8.88;;;;;;;;;;5003033;28;20041;-76
2021/08/03 06:02:08;;;;;;;13.90;8.57;;;;;;;;;;5002650;28;20054;-76
2021/08/03 06:04:41;;;;;;;12.07;8.07;;;;;;;;;;5006176;28;20059;-75
2021/08/03 06:07:10;;;;;;;16.33;7.82;;;;;;;;;;5001537;28;20042;-76
2021/08/03 06:09:37;;;;;;;14.23;9.32;;;;;;;;;;5019729;28;20041;-76
2021/08/03 06:12:04;;;;;;;14.23;9.10;;;;;;;;;;5012010;28;20046;-75
2021/08/03 06:14:39;;;;;;;15.30;9.63;;;;;;;;;;5002472;28;20120;-75
2021/08/03 06:17:14;;;;;;;15.70;9.73;;;;;;;;;;5002883;28;20049;-75
2021/08/03 06:19:49;;;;;;;13.93;9.07;;;;;;;;;;4985272;28;20042;-76
2021/08/03 06:22:18;;;;;;;15.32;9.48;;;;;;;;;;5001154;28;20416;-75
2021/08/03 06:24:49;;;;;;;14.85;9.00;;;;;;;;;;5002309;28;20129;-75
2021/08/03 06:27:20;;;;;;;14.00;9.27;;;;;;;;;;5011513;28;20041;-75
2021/08/03 06:29:48;;;;;;;15.32;9.70;;;;;;;;;;5006334;28;20038;-75
2021/08/03 06:32:15;;;;;;;18.65;10.07;;;;;;;;;;5002669;28;20042;-76
2021/08/03 06:34:44;;;;;;;16.25;10.80;;;;;;;;;;5022182;28;20117;-75
2021/08/03 06:37:12;;;;;;;16.45;9.88;;;;;;;;;;5005733;28;20377;-75
2021/08/03 06:39:40;;;;;;;18.80;9.93;;;;;;;;;;4985763;28;20100;-75
2021/08/03 06:42:32;;;;;;;17.08;10.60;;;;;;;;;;4969470;28;20124;-75
2021/08/03 06:45:01;;;;;;;14.90;10.10;;;;;;;;;;4976453;28;20437;-75
2021/08/03 06:47:55;;;;;;;18.55;11.60;;;;;;;;;;5003331;28;20053;-77
2021/08/03 06:50:30;;;;;;;16.08;10.13;;;;;;;;;;4998618;28;20042;-76
2021/08/03 06:52:59;;;;;;;16.10;11.52;;;;;;;;;;5001409;28;20041;-75
2021/08/03 06:55:34;;;;;;;18.77;11.55;;;;;;;;;;5016422;28;20453;-75
2021/08/03 06:58:05;;;;;;;18.02;12.38;;;;;;;;;;5021381;28;20120;-75
2021/08/03 07:00:40;;;;;;;17.27;10.40;;;;;;;;;;5004083;28;20096;-75
2021/08/03 07:03:08;;;;;;;;;;;;;;;;;;5022231;28;20033;-75
2021/08/03 07:05:43;;;;;;;16.10;10.35;;;;;;;;;;5021801;28;19924;-75
2021/08/03 07:08:12;;;;;;;18.02;12.35;;;;;;;;;;5022031;28;20103;-75
2021/08/03 07:10:39;;;;;;;17.17;10.68;;;;;;;;;;5002593;28;20503;-77
2021/08/03 07:13:06;;;;;;;19.38;11.75;;;;;;;;;;5009841;28;20042;-75
2021/08/03 07:15:35;;;;;;;17.67;11.85;;;;;;;;;;4986780;28;20042;-75
2021/08/03 07:18:02;;;;;;;15.85;10.35;;;;;;;;;;5012417;28;20080;-74
2021/08/03 07:20:30;;;;;;;17.30;10.20;;;;;;;;;;5025642;28;20052;-75
2021/08/03 07:22:59;;;;;;;16.92;10.45;;;;;;;;;;5025231;28;20052;-75
2021/08/03 07:25:25;;;;;;;;;;;;;;;;;;5008046;28;20406;-75
2021/08/03 07:27:52;;;;;;;18.08;10.88;;;;;;;;;;4992372;28;19971;-75
2021/08/03 07:30:20;;;;;;;16.50;10.50;;;;;;;;;;5007651;28;21156;-74
2021/08/03 07:32:47;;;;;;;17.48;10.05;;;;;;;;;;5007653;28;20053;-75
2021/08/03 07:35:14;;;;;;;17.30;10.73;;;;;;;;;;5005303;28;20470;-75
2021/08/03 07:37:41;;;;;;;15.15;10.55;;;;;;;;;;5008519;28;20818;-74
2021/08/03 07:40:09;;;;;;;19.83;10.77;;;;;;;;;;5025197;28;20508;-75
2021/08/03 07:42:37;;;;;;;17.45;10.70;;;;;;;;;;4993605;28;20404;-74
2021/08/03 07:45:05;;;;;;;15.75;10.05;;;;;;;;;;5005296;28;20085;-75
2021/08/03 07:47:34;;;;;;;17.13;10.73;;;;;;;;;;4988757;28;20069;-75
2021/08/03 07:50:01;;;;;;;22.45;10.93;;;;;;;;;;5004203;28;20053;-75
2021/08/03 07:52:28;;;;;;;20.13;11.45;;;;;;;;;;5005253;28;20085;-75
2021/08/03 07:54:55;;;;;;;17.98;11.65;;;;;;;;;;4988614;28;20038;-75
2021/08/03 07:57:23;;;;;;;15.85;10.55;;;;;;;;;;5015996;28;20046;-75
2021/08/03 07:59:51;;;;;;;18.38;11.85;;;;;;;;;;5008623;28;20448;-75
2021/08/03 08:02:21;;;;;;;18.45;11.50;;;;;;;;;;5025070;28;20467;-76
2021/08/03 08:04:48;;;;;;;15.60;10.20;;;;;;;;;;5013751;28;20039;-75
2021/08/03 08:07:17;;;;;;;15.27;11.25;;;;;;;;;;5004878;28;20041;-77
2021/08/03 08:09:44;;;;;;;25.35;11.73;;;;;;;;;;4972046;28;20416;-75
2021/08/03 08:12:12;;;;;;;19.95;12.18;;;;;;;;;;5004659;28;20050;-76
2021/08/03 08:14:39;;;;;;;18.15;11.70;;;;;;;;;;5005393;28;20030;-78
2021/08/03 08:17:06;;;;;;;17.63;11.38;;;;;;;;;;5006323;28;20044;-74
2021/08/03 08:19:33;;;;;;;15.20;11.52;;;;;;;;;;5006643;28;20100;-75
2021/08/03 08:22:00;;;;;;;15.52;10.15;;;;;;;;;;5024654;28;20037;-77
2021/08/03 08:24:27;;;;;;;16.45;11.80;;;;;;;;;;5005358;28;20544;-75
2021/08/03 08:26:54;;;;;;;18.33;10.57;;;;;;;;;;5005134;28;20500;-74
2021/08/03 08:29:21;;;;;;;17.38;11.50;;;;;;;;;;4986330;28;20504;-76
2021/08/03 08:31:48;;;;;;;19.48;11.23;;;;;;;;;;5004976;28;20088;-74
2021/08/03 08:34:19;;;;;;;18.27;12.07;;;;;;;;;;4987127;28;20034;-75
2021/08/03 08:36:46;;;;;;;16.88;10.40;;;;;;;;;;5007392;28;20096;-74
2021/08/03 08:39:13;;;;;;;19.05;11.70;;;;;;;;;;5001032;28;20056;-75
2021/08/03 08:41:41;;;;;;;19.25;12.25;;;;;;;;;;5004380;28;20046;-75
2021/08/03 08:44:11;;;;;;;16.42;11.73;;;;;;;;;;5002758;28;20042;-74
2021/08/03 08:46:40;;;;;;;16.30;11.20;;;;;;;;;;5004915;28;20544;-75
2021/08/03 08:49:08;;;;;;;20.33;11.50;;;;;;;;;;4987915;28;20046;-75
2021/08/03 08:51:36;;;;;;;17.88;12.68;;;;;;;;;;4971045;28;20042;-74
2021/08/03 08:54:04;;;;;;;21.85;12.05;;;;;;;;;;4987049;28;20038;-75
2021/08/03 08:56:31;;;;;;;16.63;10.90;;;;;;;;;;5005262;28;20046;-75
2021/08/03 08:58:58;;;;;;;15.23;10.63;;;;;;;;;;4995548;28;20448;-77
2021/08/03 09:01:25;;;;;;;15.45;10.27;;;;;;;;;;4986552;28;20152;-76
2021/08/03 09:03:52;;;;;;;16.15;11.02;;;;;;;;;;5015824;28;20042;-76
2021/08/03 09:06:21;;;;;;;19.05;10.85;;;;;;;;;;5022975;28;20054;-77
2021/08/03 09:08:50;;;;;;;18.67;11.77;;;;;;;;;;5019507;28;20042;-75
2021/08/03 09:11:20;;;;;;;15.90;10.38;;;;;;;;;;5004544;28;20046;-75
2021/08/03 09:13:58;;;;;;;20.77;10.18;;;;;;;;;;5004257;28;20033;-75
2021/08/03 09:16:27;;;;;;;17.13;11.20;;;;;;;;;;5004384;28;20065;-75
2021/08/03 09:18:57;;;;;;;17.05;11.02;;;;;;;;;;4970048;28;20041;-75
2021/08/03 09:21:25;;;;;;;18.20;10.90;;;;;;;;;;5003646;28;20042;-75
2021/08/03 09:23:56;;;;;;;18.70;11.82;;;;;;;;;;5003357;28;20042;-74
2021/08/03 09:26:46;;;;;;;15.70;10.07;;;;;;;;;;4970196;28;20046;-75
2021/08/03 09:29:15;;;;;;;15.70;10.35;;;;;;;;;;5003621;28;20049;-75
2021/08/03 09:31:51;;;;;;;16.67;11.10;;;;;;;;;;5003447;28;20040;-75
2021/08/03 09:34:18;;;;;;;16.70;10.63;;;;;;;;;;4985948;28;20087;-74
2021/08/03 09:36:49;;;;;;;15.88;9.15;;;;;;;;;;4985375;28;20393;-75
2021/08/03 09:39:35;;;;;;;15.48;9.65;;;;;;;;;;4986790;28;20049;-75
2021/08/03 09:42:06;;;;;;;14.30;8.80;;;;;;;;;;4982448;28;20101;-74
2021/08/03 09:44:36;;;;;;;14.77;8.98;;;;;;;;;;4983502;28;20092;-76
2021/08/03 09:47:03;;;;;;;14.00;9.35;;;;;;;;;;4982884;28;20097;-75
2021/08/03 09:49:38;;;;;;;14.60;9.35;;;;;;;;;;4984902;28;20055;-76
2021/08/03 09:52:08;;;;;;;13.88;7.82;;;;;;;;;;4984076;28;20077;-75
2021/08/03 09:54:35;;;;;;;14.70;9.07;;;;;;;;;;5008141;28;20053;-77
2021/08/03 09:57:04;;;;;;;13.75;8.70;;;;;;;;;;5003589;28;20050;-76
2021/08/03 09:59:38;;;;;;;14.52;8.15;;;;;;;;;;5001782;28;20045;-76
2021/08/03 10:02:09;;;;;;;14.40;8.80;;;;;;;;;;5001769;28;20056;-75
2021/08/03 10:04:36;;;;;;;13.38;7.45;;;;;;;;;;5002111;28;20046;-75
2021/08/03 10:07:03;;;;;;;15.07;8.68;;;;;;;;;;4998527;28;20038;-75
2021/08/03 10:09:34;;;;;;;13.90;7.85;;;;;;;;;;5000638;28;20435;-75
2021/08/03 10:12:01;;;;;;;13.35;7.88;;;;;;;;;;5001391;28;20133;-77
2021/08/03 10:14:28;;;;;;;14.05;7.85;;;;;;;;;;5001310;28;20069;-78
2021/08/03 10:16:55;;;;;;;13.75;7.80;;;;;;;;;;5009032;28;20046;-78
2021/08/03 10:19:28;;;;;;;12.82;8.75;;;;;;;;;;5018210;28;20048;-78
2021/08/03 10:22:24;;;;;;;15.60;9.20;;;;;;;;;;5003253;28;20671;-78
2021/08/03 10:25:06;;;;;;;13.38;8.73;;;;;;;;;;5000461;28;20042;-77
2021/08/03 10:27:53;;;;;;;13.70;8.23;;;;;;;;;;5002630;28;20042;-78
2021/08/03 10:30:29;;;;;;;14.50;8.10;;;;;;;;;;5000845;28;20108;-78
2021/08/03 10:32:59;;;;;;;14.23;8.30;;;;;;;;;;5001073;28;20413;-77
2021/08/03 10:35:43;;;;;;;11.88;8.63;;;;;;;;;;5001504;28;20135;-78
2021/08/03 10:38:12;;;;;;;13.82;8.80;;;;;;;;;;5000875;28;20049;-78
2021/08/03 10:40:48;;;;;;;15.55;8.45;;;;;;;;;;5010894;28;20118;-78
2021/08/03 10:43:27;;;;;;;13.18;8.38;;;;;;;;;;5022476;28;20056;-78
2021/08/03 10:46:07;;;;;;;17.77;9.82;;;;;;;;;;5003905;28;20654;-78
2021/08/03 10:48:38;;;;;;;16.17;9.10;;;;;;;;;;5021587;28;20037;-78
2021/08/03 10:51:15;;;;;;;14.65;10.20;;;;;;;;;;5021690;28;20064;-78
2021/08/03 10:54:04;;;;;;;13.90;8.55;;;;;;;;;;5021701;28;20064;-79
2021/08/03 10:56:58;;;;;;;18.20;11.02;;;;;;;;;;5022040;28;20116;-78
2021/08/03 10:59:34;;;;;;;19.55;12.32;;;;;;;;;;5021799;28;20057;-77
2021/08/03 11:02:06;;;;;;;19.83;11.60;;;;;;;;;;5003435;28;20059;-78
2021/08/03 11:04:46;;;;;;;15.60;9.82;;;;;;;;;;5004057;28;20072;-78
2021/08/03 11:07:29;;;;;;;16.73;9.18;;;;;;;;;;5003912;28;20114;-78
2021/08/03 11:10:10;;;;;;;14.60;9.25;;;;;;;;;;5004366;28;20403;-79
2021/08/03 11:12:40;;;;;;;14.00;9.38;;;;;;;;;;5020346;28;20038;-78
2021/08/03 11:15:22;;;;;;;17.58;9.07;;;;;;;;;;5003191;28;20464;-78
2021/08/03 11:18:01;;;;;;;14.65;9.27;;;;;;;;;;5003714;28;20148;-78
2021/08/03 11:20:57;;;;;;;16.15;9.10;;;;;;;;;;5002296;28;20045;-78
2021/08/03 11:24:16;;;;;;;15.50;9.82;;;;;;;;;;5020881;28;20563;-78
2021/08/03 11:26:56;;;;;;;14.93;9.40;;;;;;;;;;5009224;28;20068;-78
2021/08/03 11:29:35;;;;;;;13.88;8.85;;;;;;;;;;5003408;28;20438;-76
2021/08/03 11:32:09;;;;;;;16.60;9.65;;;;;;;;;;4987244;28;20143;-76
2021/08/03 11:34:47;;;;;;;15.25;8.73;;;;;;;;;;5003727;28;20055;-78
2021/08/03 11:37:19;;;;;;;15.68;10.13;;;;;;;;;;5003247;28;20042;-77
2021/08/03 11:39:55;;;;;;;14.35;8.75;;;;;;;;;;5020868;28;20037;-77
2021/08/03 11:42:34;;;;;;;12.00;8.63;;;;;;;;;;5002661;28;20057;-77
2021/08/03 11:45:13;;;;;;;16.85;9.20;;;;;;;;;;5003262;28;20045;-77
2021/08/03 11:47:46;;;;;;;13.98;8.73;;;;;;;;;;5020969;28;20060;-77
2021/08/03 11:50:34;;;;;;;12.68;9.13;;;;;;;;;;5020718;28;20143;-78
2021/08/03 11:53:12;;;;;;;14.63;7.95;;;;;;;;;;4999907;28;20041;-77
2021/08/03 11:55:42;;;;;;;13.82;8.23;;;;;;;;;;5000412;28;20124;-77
2021/08/03 11:58:13;;;;;;;12.60;8.63;;;;;;;;;;4977202;28;20041;-77
2021/08/03 12:00:40;;;;;;;12.30;8.23;;;;;;;;;;5002314;28;20123;-78
2021/08/03 12:03:07;;;;;;;13.13;8.57;;;;;;;;;;5017570;28;20148;-78
2021/08/03 12:05:37;;;;;;;14.98;8.93;;;;;;;;;;5022929;28;20113;-76
2021/08/03 12:08:14;;;;;;;14.30;9.07;;;;;;;;;;4985046;28;20121;-76
2021/08/03 12:10:49;;;;;;;13.68;9.25;;;;;;;;;;4995522;28;20046;-77
2021/08/03 12:13:27;;;;;;;11.48;8.18;;;;;;;;;;5006106;28;20045;-77
2021/08/03 12:15:58;;;;;;;15.02;11.63;;;;;;;;;;5013126;28;20037;-78
2021/08/03 12:18:46;;;;;;;19.70;13.13;;;;;;;;;;5020578;28;20511;-74
2021/08/03 12:21:13;;;;;;;15.55;10.85;;;;;;;;;;5023772;28;20050;-77
2021/08/03 12:23:43;;;;;;;14.40;10.25;;;;;;;;;;5024159;28;20475;-75
2021/08/03 12:26:16;;;;;;;14.45;10.40;;;;;;;;;;5001987;28;20095;-75
2021/08/03 12:28:54;;;;;;;16.20;10.20;;;;;;;;;;5021687;28;20465;-76
2021/08/03 12:31:32;;;;;;;15.10;9.70;;;;;;;;;;5006204;28;20045;-75
2021/08/03 12:34:20;;;;;;;19.13;10.65;;;;;;;;;;5021884;28;20046;-75
2021/08/03 12:36:47;;;;;;;16.05;9.90;;;;;;;;;;5004742;28;20488;-75
2021/08/03 12:39:24;;;;;;;17.33;11.65;;;;;;;;;;5021025;28;20045;-75
2021/08/03 12:42:05;;;;;;;17.55;11.85;;;;;;;;;;5004767;28;20041;-75
2021/08/03 12:44:37;;;;;;;18.58;10.98;;;;;;;;;;5002677;28;21241;-75
2021/08/03 12:47:11;;;;;;;20.10;11.63;;;;;;;;;;5021865;28;20076;-72
2021/08/03 12:49:44;;;;;;;16.33;12.02;;;;;;;;;;5021859;28;20045;-76
2021/08/03 12:52:21;;;;;;;22.80;12.45;;;;;;;;;;5018871;28;20045;-72
2021/08/03 12:55:02;;;;;;;20.15;12.77;;;;;;;;;;4987622;28;20045;-73
2021/08/03 12:57:48;;;;;;;18.85;12.90;;;;;;;;;;5021781;28;20053;-73
2021/08/03 13:00:38;;;;;;;19.17;12.45;;;;;;;;;;5021398;28;20033;-73
2021/08/03 13:03:12;;;;;;;17.50;11.32;;;;;;;;;;4987510;28;20447;-73
2021/08/03 13:05:43;;;;;;;16.98;11.65;;;;;;;;;;5022176;28;20680;-72
2021/08/03 13:08:13;;;;;;;24.75;12.65;;;;;;;;;;5001041;28;20487;-74
2021/08/03 13:10:41;;;;;;;20.52;11.98;;;;;;;;;;4999934;28;20111;-77
2021/08/03 13:13:08;;;;;;;17.40;10.63;;;;;;;;;;5011529;28;20507;-76
2021/08/03 13:15:38;;;;;;;17.00;11.80;;;;;;;;;;5020190;28;20044;-75
2021/08/03 13:18:05;;;;;;;17.38;10.93;;;;;;;;;;5001077;28;20038;-75
2021/08/03 13:20:32;;;;;;;16.77;10.85;;;;;;;;;;5004385;28;20075;-76
2021/08/03 13:22:59;;;;;;;13.02;8.85;;;;;;;;;;5020567;28;20087;-76
2021/08/03 13:25:26;;;;;;;12.23;9.10;;;;;;;;;;5021342;28;20053;-76
2021/08/03 13:27:56;;;;;;;15.05;9.05;;;;;;;;;;5022269;28;20045;-76
2021/08/03 13:30:23;;;;;;;13.90;8.48;;;;;;;;;;5002101;28;20047;-78
2021/08/03 13:32:50;;;;;;;13.43;9.88;;;;;;;;;;4992430;28;20100;-78
2021/08/03 13:35:18;;;;;;;16.73;11.00;;;;;;;;;;5022850;28;20048;-77
2021/08/03 13:37:45;;;;;;;17.02;10.77;;;;;;;;;;4987663;28;20041;-76
2021/08/03 13:40:15;;;;;;;16.13;10.68;;;;;;;;;;5010231;28;20056;-76
2021/08/03 13:42:42;;;;;;;14.88;8.77;;;;;;;;;;5023017;28;20049;-76
2021/08/03 13:45:12;;;;;;;13.57;9.07;;;;;;;;;;5022153;28;20411;-76
2021/08/03 13:47:39;;;;;;;14.57;9.50;;;;;;;;;;5012070;28;20638;-77
2021/08/03 13:50:08;;;;;;;13.95;10.35;;;;;;;;;;5002999;28;20128;-76
2021/08/03 13:52:38;;;;;;;13.10;9.88;;;;;;;;;;5003639;28;20049;-77
2021/08/03 13:55:05;;;;;;;12.68;8.95;;;;;;;;;;5004666;28;20049;-77
2021/08/03 13:57:32;;;;;;;13.80;8.93;;;;;;;;;;5003964;28;20113;-76
2021/08/03 13:59:59;;;;;;;16.95;10.50;;;;;;;;;;5003768;28;20424;-76
2021/08/03 14:02:26;;;;;;;12.80;9.43;;;;;;;;;;5010971;28;20076;-77
2021/08/03 14:04:53;;;;;;;16.75;10.60;;;;;;;;;;5001219;28;20565;-75
2021/08/03 14:07:21;;;;;;;14.35;10.45;;;;;;;;;;5019619;28;20076;-76
2021/08/03 14:09:48;;;;;;;14.15;9.95;;;;;;;;;;5020405;28;20053;-78
2021/08/03 14:12:15;;;;;;;17.48;10.77;;;;;;;;;;5001979;28;20069;-77
2021/08/03 14:14:42;;;;;;;14.85;10.07;;;;;;;;;;5018604;28;20048;-76
2021/08/03 14:17:09;;;;;;;18.98;11.55;;;;;;;;;;5002058;28;20144;-77
2021/08/03 14:19:36;;;;;;;16.05;9.25;;;;;;;;;;5017835;28;20046;-76
2021/08/03 14:22:04;;;;;;;14.30;10.23;;;;;;;;;;5021517;28;20073;-76
2021/08/03 14:24:31;;;;;;;13.13;9.63;;;;;;;;;;5018342;28;20045;-75
2021/08/03 14:26:58;;;;;;;13.73;9.60;;;;;;;;;;5020985;28;20512;-77
2021/08/03 14:29:25;;;;;;;12.32;8.88;;;;;;;;;;4994530;28;20060;-78
2021/08/03 14:31:52;;;;;;;13.43;9.90;;;;;;;;;;5002248;28;20069;-76
2021/08/03 14:34:21;;;;;;;15.80;9.07;;;;;;;;;;5000901;28;20044;-76
2021/08/03 14:36:48;;;;;;;17.40;9.55;;;;;;;;;;4969905;28;20136;-77
2021/08/03 14:39:15;;;;;;;13.27;9.13;;;;;;;;;;5019825;28;20037;-76
2021/08/03 14:41:43;;;;;;;14.52;8.80;;;;;;;;;;5009616;28;20046;-77
2021/08/03 14:44:11;;;;;;;13.60;9.13;;;;;;;;;;5010216;28;20068;-78
2021/08/03 14:46:38;;;;;;;12.35;8.57;;;;;;;;;;5020376;28;20045;-76
2021/08/03 14:49:12;;;;;;;13.93;9.63;;;;;;;;;;5000916;28;20471;-76
2021/08/03 14:51:42;;;;;;;16.67;9.02;;;;;;;;;;4987493;28;20037;-74